sensor_id;sensor_type;location;lat;lon;timestamp;pressure;altitude;pressure_sealevel;temperature;humidity
7297;BME280;40758;54.038;11.684;2023-06-22T00:01:21;101789.88;;;12.14;86.84
7297;BME280;40758;54.038;11.684;2023-06-22T00:03:49;101784.19;;;12.03;86.97
7297;BME280;40758;54.038;11.684;2023-06-22T00:06:16;101786.47;;;11.99;86.74
7297;BME280;40758;54.038;11.684;2023-06-22T00:08:43;101785.63;;;11.92;86.59
7297;BME280;40758;54.038;11.684;2023-06-22T00:11:09;101788.31;;;11.85;87.15
7297;BME280;40758;54.038;11.684;2023-06-22T00:13:37;101794.75;;;11.78;86.79
7297;BME280;40758;54.038;11.684;2023-06-22T00:16:04;101798.47;;;11.70;86.50
7297;BME280;40758;54.038;11.684;2023-06-22T00:18:31;101791.13;;;11.64;86.98
7297;BME280;40758;54.038;11.684;2023-06-22T00:20:58;101783.81;;;11.71;87.57
7297;BME280;40758;54.038;11.684;2023-06-22T00:23:26;101789.69;;;11.68;87.28
7297;BME280;40758;54.038;11.684;2023-06-22T00:25:52;101791.94;;;11.58;87.49
7297;BME280;40758;54.038;11.684;2023-06-22T00:28:19;101790.06;;;11.58;87.69
7297;BME280;40758;54.038;11.684;2023-06-22T00:30:47;101795.50;;;11.58;87.53
7297;BME280;40758;54.038;11.684;2023-06-22T00:33:15;101798.44;;;11.57;88.08
7297;BME280;40758;54.038;11.684;2023-06-22T00:35:43;101795.06;;;11.48;87.68
7297;BME280;40758;54.038;11.684;2023-06-22T00:38:10;101797.53;;;11.43;87.65
7297;BME280;40758;54.038;11.684;2023-06-22T00:40:37;101793.31;;;11.40;87.74
7297;BME280;40758;54.038;11.684;2023-06-22T00:43:04;101793.28;;;11.34;87.65
7297;BME280;40758;54.038;11.684;2023-06-22T00:45:31;101802.50;;;11.33;87.56
7297;BME280;40758;54.038;11.684;2023-06-22T00:47:59;101801.88;;;11.31;87.68
7297;BME280;40758;54.038;11.684;2023-06-22T00:50:28;101793.22;;;11.21;87.94
7297;BME280;40758;54.038;11.684;2023-06-22T00:53:03;101797.31;;;11.10;87.77
7297;BME280;40758;54.038;11.684;2023-06-22T00:55:36;101794.16;;;11.06;87.80
7297;BME280;40758;54.038;11.684;2023-06-22T00:58:09;101789.09;;;10.97;87.93
7297;BME280;40758;54.038;11.684;2023-06-22T01:00:38;101793.44;;;10.91;87.83
7297;BME280;40758;54.038;11.684;2023-06-22T01:03:05;101802.59;;;10.90;87.70
7297;BME280;40758;54.038;11.684;2023-06-22T01:05:37;101796.50;;;10.81;88.01
7297;BME280;40758;54.038;11.684;2023-06-22T01:08:51;101785.97;;;11.00;88.38
7297;BME280;40758;54.038;11.684;2023-06-22T01:10:57;101804.84;;;11.08;88.75
7297;BME280;40758;54.038;11.684;2023-06-22T01:16:12;101803.28;;;11.27;89.19
7297;BME280;40758;54.038;11.684;2023-06-22T01:18:42;101794.06;;;11.21;88.94
7297;BME280;40758;54.038;11.684;2023-06-22T01:21:13;101801.97;;;11.16;88.47
7297;BME280;40758;54.038;11.684;2023-06-22T01:24:14;101798.78;;;11.12;88.80
7297;BME280;40758;54.038;11.684;2023-06-22T01:29:12;101783.44;;;10.98;88.74
7297;BME280;40758;54.038;11.684;2023-06-22T01:31:40;101803.94;;;11.01;88.77
7297;BME280;40758;54.038;11.684;2023-06-22T01:34:09;101801.84;;;10.96;88.77
7297;BME280;40758;54.038;11.684;2023-06-22T01:36:38;101811.41;;;10.92;89.08
7297;BME280;40758;54.038;11.684;2023-06-22T01:39:05;101826.63;;;10.86;88.85
7297;BME280;40758;54.038;11.684;2023-06-22T01:41:36;101816.75;;;10.79;88.71
7297;BME280;40758;54.038;11.684;2023-06-22T01:44:08;101824.59;;;10.67;88.75
7297;BME280;40758;54.038;11.684;2023-06-22T01:46:36;101812.38;;;10.56;88.51
7297;BME280;40758;54.038;11.684;2023-06-22T01:49:04;101815.69;;;10.52;88.72
7297;BME280;40758;54.038;11.684;2023-06-22T01:51:31;101816.91;;;10.49;88.60
7297;BME280;40758;54.038;11.684;2023-06-22T01:54:01;101816.06;;;10.49;88.81
7297;BME280;40758;54.038;11.684;2023-06-22T01:56:27;101816.47;;;10.46;88.75
7297;BME280;40758;54.038;11.684;2023-06-22T02:02:15;101813.47;;;10.41;89.16
7297;BME280;40758;54.038;11.684;2023-06-22T02:07:20;101815.16;;;10.42;89.12
7297;BME280;40758;54.038;11.684;2023-06-22T02:09:51;101817.88;;;10.42;89.40
7297;BME280;40758;54.038;11.684;2023-06-22T02:12:22;101826.91;;;10.49;89.30
7297;BME280;40758;54.038;11.684;2023-06-22T02:14:51;101812.34;;;10.50;89.13
7297;BME280;40758;54.038;11.684;2023-06-22T02:17:18;101807.34;;;10.53;89.30
7297;BME280;40758;54.038;11.684;2023-06-22T02:19:45;101806.13;;;10.56;89.43
7297;BME280;40758;54.038;11.684;2023-06-22T02:22:12;101804.03;;;10.58;89.50
7297;BME280;40758;54.038;11.684;2023-06-22T02:24:40;101805.44;;;10.54;89.60
7297;BME280;40758;54.038;11.684;2023-06-22T02:27:07;101806.03;;;10.49;89.27
7297;BME280;40758;54.038;11.684;2023-06-22T02:29:33;101819.81;;;10.48;89.55
7297;BME280;40758;54.038;11.684;2023-06-22T02:32:00;101816.00;;;10.42;89.46
7297;BME280;40758;54.038;11.684;2023-06-22T02:34:27;101828.09;;;10.39;89.28
7297;BME280;40758;54.038;11.684;2023-06-22T02:36:53;101830.34;;;10.36;89.49
7297;BME280;40758;54.038;11.684;2023-06-22T02:39:22;101825.50;;;10.31;89.37
7297;BME280;40758;54.038;11.684;2023-06-22T02:41:49;101836.34;;;10.31;89.55
7297;BME280;40758;54.038;11.684;2023-06-22T02:44:17;101838.44;;;10.29;89.15
7297;BME280;40758;54.038;11.684;2023-06-22T02:46:44;101830.28;;;10.29;89.58
7297;BME280;40758;54.038;11.684;2023-06-22T02:49:11;101829.25;;;10.30;89.48
7297;BME280;40758;54.038;11.684;2023-06-22T02:51:45;101832.78;;;10.31;89.44
7297;BME280;40758;54.038;11.684;2023-06-22T02:54:11;101826.34;;;10.32;89.75
7297;BME280;40758;54.038;11.684;2023-06-22T02:56:38;101832.03;;;10.37;89.65
7297;BME280;40758;54.038;11.684;2023-06-22T02:59:07;101830.16;;;10.37;89.73
7297;BME280;40758;54.038;11.684;2023-06-22T03:01:34;101836.03;;;10.41;89.63
7297;BME280;40758;54.038;11.684;2023-06-22T03:04:07;101833.97;;;10.43;89.57
7297;BME280;40758;54.038;11.684;2023-06-22T03:06:34;101833.78;;;10.45;89.87
7297;BME280;40758;54.038;11.684;2023-06-22T03:09:03;101841.16;;;10.51;89.79
7297;BME280;40758;54.038;11.684;2023-06-22T03:11:32;101840.75;;;10.54;89.73
7297;BME280;40758;54.038;11.684;2023-06-22T03:14:02;101829.13;;;10.60;89.94
7297;BME280;40758;54.038;11.684;2023-06-22T03:16:29;101836.41;;;10.59;89.91
7297;BME280;40758;54.038;11.684;2023-06-22T03:18:55;101836.31;;;10.68;90.05
7297;BME280;40758;54.038;11.684;2023-06-22T03:21:27;101832.59;;;10.75;89.67
7297;BME280;40758;54.038;11.684;2023-06-22T03:23:54;101827.06;;;10.90;90.24
7297;BME280;40758;54.038;11.684;2023-06-22T03:26:21;101831.28;;;10.92;90.03
7297;BME280;40758;54.038;11.684;2023-06-22T03:28:48;101826.88;;;10.91;89.92
7297;BME280;40758;54.038;11.684;2023-06-22T03:31:15;101823.50;;;10.89;90.07
7297;BME280;40758;54.038;11.684;2023-06-22T03:33:42;101842.31;;;10.84;89.68
7297;BME280;40758;54.038;11.684;2023-06-22T03:36:08;101836.63;;;10.79;90.06
7297;BME280;40758;54.038;11.684;2023-06-22T03:38:35;101834.69;;;10.73;89.81
7297;BME280;40758;54.038;11.684;2023-06-22T03:41:02;101813.22;;;10.57;89.80
7297;BME280;40758;54.038;11.684;2023-06-22T03:43:28;101848.44;;;10.72;89.88
7297;BME280;40758;54.038;11.684;2023-06-22T03:45:55;101845.72;;;10.72;89.73
7297;BME280;40758;54.038;11.684;2023-06-22T03:48:22;101845.09;;;10.70;89.92
7297;BME280;40758;54.038;11.684;2023-06-22T03:50:48;101848.44;;;10.72;89.89
7297;BME280;40758;54.038;11.684;2023-06-22T03:53:15;101847.59;;;10.71;89.85
7297;BME280;40758;54.038;11.684;2023-06-22T03:55:49;101858.09;;;10.74;89.95
7297;BME280;40758;54.038;11.684;2023-06-22T03:58:17;101852.25;;;10.77;89.92
7297;BME280;40758;54.038;11.684;2023-06-22T04:00:49;101860.66;;;10.82;89.93
7297;BME280;40758;54.038;11.684;2023-06-22T04:03:17;101860.28;;;10.85;89.83
7297;BME280;40758;54.038;11.684;2023-06-22T04:05:48;101868.53;;;10.99;89.83
7297;BME280;40758;54.038;11.684;2023-06-22T04:08:15;101864.00;;;11.06;90.21
7297;BME280;40758;54.038;11.684;2023-06-22T04:10:42;101866.31;;;11.09;89.81
7297;BME280;40758;54.038;11.684;2023-06-22T04:13:09;101864.03;;;11.12;90.20
7297;BME280;40758;54.038;11.684;2023-06-22T04:15:36;101869.53;;;11.19;90.01
7297;BME280;40758;54.038;11.684;2023-06-22T04:18:02;101865.16;;;11.25;89.74
7297;BME280;40758;54.038;11.684;2023-06-22T04:20:31;101865.88;;;11.33;90.11
7297;BME280;40758;54.038;11.684;2023-06-22T04:22:59;101872.84;;;11.42;89.72
7297;BME280;40758;54.038;11.684;2023-06-22T04:25:26;101869.16;;;11.57;89.91
7297;BME280;40758;54.038;11.684;2023-06-22T04:27:53;101873.22;;;11.74;89.95
7297;BME280;40758;54.038;11.684;2023-06-22T04:30:19;101864.34;;;11.93;90.15
7297;BME280;40758;54.038;11.684;2023-06-22T04:32:46;101872.59;;;12.13;90.10
7297;BME280;40758;54.038;11.684;2023-06-22T04:35:25;101869.91;;;12.33;89.81
7297;BME280;40758;54.038;11.684;2023-06-22T04:37:53;101867.47;;;12.58;89.87
7297;BME280;40758;54.038;11.684;2023-06-22T04:40:24;101864.97;;;12.83;89.76
7297;BME280;40758;54.038;11.684;2023-06-22T04:42:51;101872.13;;;13.24;89.83
7297;BME280;40758;54.038;11.684;2023-06-22T04:45:19;101868.38;;;13.90;89.52
7297;BME280;40758;54.038;11.684;2023-06-22T04:47:46;101853.06;;;14.33;89.21
7297;BME280;40758;54.038;11.684;2023-06-22T04:50:13;101864.91;;;14.59;88.80
7297;BME280;40758;54.038;11.684;2023-06-22T04:52:40;101867.75;;;14.71;88.32
7297;BME280;40758;54.038;11.684;2023-06-22T04:55:07;101867.38;;;14.67;88.09
7297;BME280;40758;54.038;11.684;2023-06-22T04:57:35;101866.03;;;14.45;87.89
7297;BME280;40758;54.038;11.684;2023-06-22T05:00:03;101868.38;;;14.34;87.72
7297;BME280;40758;54.038;11.684;2023-06-22T05:02:40;101859.59;;;14.26;87.62
7297;BME280;40758;54.038;11.684;2023-06-22T05:05:08;101859.59;;;14.26;87.64
7297;BME280;40758;54.038;11.684;2023-06-22T05:07:36;101865.59;;;14.41;87.63
7297;BME280;40758;54.038;11.684;2023-06-22T05:10:03;101868.75;;;14.76;87.49
7297;BME280;40758;54.038;11.684;2023-06-22T05:12:30;101854.28;;;15.44;87.47
7297;BME280;40758;54.038;11.684;2023-06-22T05:14:57;101858.91;;;15.62;87.09
7297;BME280;40758;54.038;11.684;2023-06-22T05:17:24;101850.47;;;16.00;86.73
7297;BME280;40758;54.038;11.684;2023-06-22T05:19:51;101852.28;;;16.25;86.20
7297;BME280;40758;54.038;11.684;2023-06-22T05:22:18;101850.81;;;16.64;85.75
7297;BME280;40758;54.038;11.684;2023-06-22T05:24:45;101848.03;;;16.70;85.63
7297;BME280;40758;54.038;11.684;2023-06-22T05:27:13;101845.91;;;16.84;85.41
7297;BME280;40758;54.038;11.684;2023-06-22T05:29:40;101851.84;;;16.81;84.74
7297;BME280;40758;54.038;11.684;2023-06-22T05:32:07;101851.88;;;16.93;84.54
7297;BME280;40758;54.038;11.684;2023-06-22T05:34:34;101858.44;;;17.15;84.11
7297;BME280;40758;54.038;11.684;2023-06-22T05:37:02;101859.28;;;17.16;83.93
7297;BME280;40758;54.038;11.684;2023-06-22T05:39:29;101869.91;;;17.12;83.63
7297;BME280;40758;54.038;11.684;2023-06-22T05:41:55;101865.50;;;17.11;83.75
7297;BME280;40758;54.038;11.684;2023-06-22T05:44:22;101862.53;;;17.36;83.49
7297;BME280;40758;54.038;11.684;2023-06-22T05:46:49;101865.72;;;17.33;82.31
7297;BME280;40758;54.038;11.684;2023-06-22T05:49:16;101870.03;;;17.52;81.95
7297;BME280;40758;54.038;11.684;2023-06-22T05:51:43;101873.31;;;18.01;82.34
7297;BME280;40758;54.038;11.684;2023-06-22T05:54:10;101870.63;;;18.47;82.45
7297;BME280;40758;54.038;11.684;2023-06-22T05:56:37;101869.88;;;18.97;82.08
7297;BME280;40758;54.038;11.684;2023-06-22T05:59:04;101874.84;;;19.50;81.47
7297;BME280;40758;54.038;11.684;2023-06-22T06:01:31;101873.44;;;19.86;80.83
7297;BME280;40758;54.038;11.684;2023-06-22T06:04:02;101877.50;;;20.06;79.83
7297;BME280;40758;54.038;11.684;2023-06-22T06:06:30;101880.09;;;20.39;79.96
7297;BME280;40758;54.038;11.684;2023-06-22T06:08:57;101886.22;;;20.68;79.12
7297;BME280;40758;54.038;11.684;2023-06-22T06:11:25;101888.47;;;21.04;77.98
7297;BME280;40758;54.038;11.684;2023-06-22T06:13:52;101879.81;;;21.27;77.43
7297;BME280;40758;54.038;11.684;2023-06-22T06:16:19;101874.31;;;21.69;77.08
7297;BME280;40758;54.038;11.684;2023-06-22T06:18:45;101878.75;;;21.70;74.31
7297;BME280;40758;54.038;11.684;2023-06-22T06:21:12;101870.00;;;21.94;74.42
7297;BME280;40758;54.038;11.684;2023-06-22T06:23:40;101882.00;;;22.15;73.08
7297;BME280;40758;54.038;11.684;2023-06-22T06:26:06;101879.91;;;22.73;73.16
7297;BME280;40758;54.038;11.684;2023-06-22T06:28:34;101886.88;;;23.11;71.00
7297;BME280;40758;54.038;11.684;2023-06-22T06:31:01;101882.66;;;23.65;71.25
7297;BME280;40758;54.038;11.684;2023-06-22T06:33:28;101879.16;;;24.08;70.30
7297;BME280;40758;54.038;11.684;2023-06-22T06:35:54;101874.19;;;24.00;67.72
7297;BME280;40758;54.038;11.684;2023-06-22T06:38:22;101874.75;;;24.07;67.03
7297;BME280;40758;54.038;11.684;2023-06-22T06:40:49;101873.00;;;24.16;65.54
7297;BME280;40758;54.038;11.684;2023-06-22T06:43:15;101872.06;;;24.81;65.39
7297;BME280;40758;54.038;11.684;2023-06-22T06:45:42;101880.19;;;25.11;64.29
7297;BME280;40758;54.038;11.684;2023-06-22T06:48:09;101869.22;;;25.49;62.46
7297;BME280;40758;54.038;11.684;2023-06-22T06:50:36;101869.72;;;25.80;60.71
7297;BME280;40758;54.038;11.684;2023-06-22T06:53:03;101873.22;;;25.91;59.90
7297;BME280;40758;54.038;11.684;2023-06-22T06:55:29;101869.91;;;25.89;58.35
7297;BME280;40758;54.038;11.684;2023-06-22T06:57:59;101862.56;;;25.21;54.83
7297;BME280;40758;54.038;11.684;2023-06-22T07:00:26;101874.25;;;24.89;55.45
7297;BME280;40758;54.038;11.684;2023-06-22T07:02:54;101866.81;;;25.66;57.60
7297;BME280;40758;54.038;11.684;2023-06-22T07:05:20;101861.31;;;26.09;56.33
7297;BME280;40758;54.038;11.684;2023-06-22T07:07:47;101869.81;;;26.37;55.38
7297;BME280;40758;54.038;11.684;2023-06-22T07:10:14;101873.00;;;26.49;53.59
7297;BME280;40758;54.038;11.684;2023-06-22T07:12:42;101867.63;;;26.15;53.67
7297;BME280;40758;54.038;11.684;2023-06-22T07:15:09;101864.47;;;25.26;51.19
7297;BME280;40758;54.038;11.684;2023-06-22T07:17:37;101868.38;;;26.20;53.69
7297;BME280;40758;54.038;11.684;2023-06-22T07:20:04;101875.84;;;26.25;51.78
7297;BME280;40758;54.038;11.684;2023-06-22T07:22:37;101881.66;;;26.47;51.50
7297;BME280;40758;54.038;11.684;2023-06-22T07:25:04;101869.22;;;26.77;50.26
7297;BME280;40758;54.038;11.684;2023-06-22T07:27:37;101865.44;;;27.06;49.54
7297;BME280;40758;54.038;11.684;2023-06-22T07:30:04;101865.72;;;27.04;46.84
7297;BME280;40758;54.038;11.684;2023-06-22T07:32:31;101862.97;;;27.18;47.12
7297;BME280;40758;54.038;11.684;2023-06-22T07:34:59;101867.91;;;27.68;47.35
7297;BME280;40758;54.038;11.684;2023-06-22T07:37:26;101857.88;;;27.67;45.66
7297;BME280;40758;54.038;11.684;2023-06-22T07:39:57;101871.13;;;27.75;44.92
7297;BME280;40758;54.038;11.684;2023-06-22T07:42:25;101867.78;;;27.31;43.75
7297;BME280;40758;54.038;11.684;2023-06-22T07:44:53;101860.34;;;26.75;44.15
7297;BME280;40758;54.038;11.684;2023-06-22T07:47:19;101863.34;;;26.22;44.47
7297;BME280;40758;54.038;11.684;2023-06-22T07:49:46;101862.50;;;26.03;45.34
7297;BME280;40758;54.038;11.684;2023-06-22T07:52:13;101855.09;;;26.55;46.33
7297;BME280;40758;54.038;11.684;2023-06-22T07:54:40;101867.22;;;26.45;44.16
7297;BME280;40758;54.038;11.684;2023-06-22T07:57:06;101871.16;;;26.20;44.04
7297;BME280;40758;54.038;11.684;2023-06-22T07:59:33;101861.56;;;25.89;43.55
7297;BME280;40758;54.038;11.684;2023-06-22T08:02:01;101862.66;;;25.93;44.94
7297;BME280;40758;54.038;11.684;2023-06-22T08:04:29;101859.25;;;25.96;45.36
7297;BME280;40758;54.038;11.684;2023-06-22T08:06:57;101865.44;;;26.31;46.21
7297;BME280;40758;54.038;11.684;2023-06-22T08:09:24;101865.16;;;26.32;45.22
7297;BME280;40758;54.038;11.684;2023-06-22T08:11:51;101867.28;;;26.21;45.43
7297;BME280;40758;54.038;11.684;2023-06-22T08:14:17;101864.78;;;26.39;45.12
7297;BME280;40758;54.038;11.684;2023-06-22T08:16:44;101867.31;;;26.92;44.93
7297;BME280;40758;54.038;11.684;2023-06-22T08:19:11;101875.41;;;27.40;44.37
7297;BME280;40758;54.038;11.684;2023-06-22T08:21:37;101872.69;;;27.21;42.10
7297;BME280;40758;54.038;11.684;2023-06-22T08:24:04;101872.06;;;27.24;42.77
7297;BME280;40758;54.038;11.684;2023-06-22T08:26:31;101876.22;;;27.26;42.62
7297;BME280;40758;54.038;11.684;2023-06-22T08:29:03;101870.56;;;27.59;42.08
7297;BME280;40758;54.038;11.684;2023-06-22T08:31:31;101864.88;;;27.64;41.57
7297;BME280;40758;54.038;11.684;2023-06-22T08:34:00;101861.78;;;27.66;41.19
7297;BME280;40758;54.038;11.684;2023-06-22T08:36:27;101863.06;;;27.87;40.92
7297;BME280;40758;54.038;11.684;2023-06-22T08:39:01;101868.41;;;28.11;41.02
7297;BME280;40758;54.038;11.684;2023-06-22T08:41:29;101870.38;;;28.10;40.58
7297;BME280;40758;54.038;11.684;2023-06-22T08:43:57;101873.56;;;28.18;40.49
7297;BME280;40758;54.038;11.684;2023-06-22T08:46:24;101876.06;;;28.05;39.58
7297;BME280;40758;54.038;11.684;2023-06-22T08:48:57;101875.94;;;28.24;39.30
7297;BME280;40758;54.038;11.684;2023-06-22T08:51:24;101873.78;;;27.94;39.03
7297;BME280;40758;54.038;11.684;2023-06-22T08:53:51;101877.53;;;27.75;38.01
7297;BME280;40758;54.038;11.684;2023-06-22T08:56:17;101874.78;;;26.77;37.71
7297;BME280;40758;54.038;11.684;2023-06-22T08:58:45;101882.47;;;26.86;39.99
7297;BME280;40758;54.038;11.684;2023-06-22T09:01:11;101881.06;;;27.21;39.20
7297;BME280;40758;54.038;11.684;2023-06-22T09:03:38;101885.81;;;27.80;40.24
7297;BME280;40758;54.038;11.684;2023-06-22T09:06:05;101848.78;;;28.02;39.07
7297;BME280;40758;54.038;11.684;2023-06-22T09:08:32;101871.91;;;28.17;38.43
7297;BME280;40758;54.038;11.684;2023-06-22T09:10:59;101858.25;;;28.15;38.19
7297;BME280;40758;54.038;11.684;2023-06-22T09:13:25;101857.00;;;28.35;38.73
7297;BME280;40758;54.038;11.684;2023-06-22T09:15:52;101856.41;;;28.24;37.85
7297;BME280;40758;54.038;11.684;2023-06-22T09:18:19;101854.09;;;28.26;37.69
7297;BME280;40758;54.038;11.684;2023-06-22T09:20:45;101859.50;;;28.09;37.01
7297;BME280;40758;54.038;11.684;2023-06-22T09:23:12;101844.41;;;28.24;37.00
7297;BME280;40758;54.038;11.684;2023-06-22T09:25:39;101849.88;;;28.15;36.28
7297;BME280;40758;54.038;11.684;2023-06-22T09:28:07;101841.16;;;28.44;37.02
7297;BME280;40758;54.038;11.684;2023-06-22T09:30:33;101844.66;;;28.50;36.33
7297;BME280;40758;54.038;11.684;2023-06-22T09:33:00;101837.41;;;28.13;35.75
7297;BME280;40758;54.038;11.684;2023-06-22T09:35:27;101841.91;;;28.36;36.61
7297;BME280;40758;54.038;11.684;2023-06-22T09:37:54;101834.22;;;28.28;36.23
7297;BME280;40758;54.038;11.684;2023-06-22T09:40:22;101843.69;;;28.54;36.28
7297;BME280;40758;54.038;11.684;2023-06-22T09:42:48;101841.53;;;28.74;36.18
7297;BME280;40758;54.038;11.684;2023-06-22T09:45:15;101846.06;;;28.83;34.70
7297;BME280;40758;54.038;11.684;2023-06-22T09:47:42;101839.41;;;28.71;34.23
7297;BME280;40758;54.038;11.684;2023-06-22T09:50:09;101844.91;;;29.07;34.89
7297;BME280;40758;54.038;11.684;2023-06-22T09:52:36;101838.13;;;29.30;34.52
7297;BME280;40758;54.038;11.684;2023-06-22T09:55:06;101842.06;;;29.29;33.62
7297;BME280;40758;54.038;11.684;2023-06-22T09:57:33;101830.94;;;28.84;32.56
7297;BME280;40758;54.038;11.684;2023-06-22T10:00:00;101832.22;;;29.01;33.29
7297;BME280;40758;54.038;11.684;2023-06-22T10:02:26;101836.41;;;29.12;32.92
7297;BME280;40758;54.038;11.684;2023-06-22T10:04:53;101835.97;;;29.27;33.15
7297;BME280;40758;54.038;11.684;2023-06-22T10:07:21;101816.81;;;28.45;30.72
7297;BME280;40758;54.038;11.684;2023-06-22T10:09:47;101826.94;;;28.04;34.16
7297;BME280;40758;54.038;11.684;2023-06-22T10:12:14;101824.50;;;27.89;33.57
7297;BME280;40758;54.038;11.684;2023-06-22T10:14:40;101807.22;;;28.01;34.59
7297;BME280;40758;54.038;11.684;2023-06-22T10:17:08;101811.72;;;28.24;34.43
7297;BME280;40758;54.038;11.684;2023-06-22T10:19:35;101812.88;;;28.46;34.42
7297;BME280;40758;54.038;11.684;2023-06-22T10:22:06;101805.91;;;28.57;34.21
7297;BME280;40758;54.038;11.684;2023-06-22T10:24:33;101818.09;;;28.83;34.53
7297;BME280;40758;54.038;11.684;2023-06-22T10:27:00;101807.53;;;28.80;32.71
7297;BME280;40758;54.038;11.684;2023-06-22T10:29:27;101806.97;;;28.92;33.42
7297;BME280;40758;54.038;11.684;2023-06-22T10:31:53;101800.06;;;28.67;32.34
7297;BME280;40758;54.038;11.684;2023-06-22T10:34:20;101801.19;;;28.88;33.36
7297;BME280;40758;54.038;11.684;2023-06-22T10:36:46;101804.13;;;28.61;31.88
7297;BME280;40758;54.038;11.684;2023-06-22T10:39:15;101790.50;;;28.37;33.97
7297;BME280;40758;54.038;11.684;2023-06-22T10:41:42;101793.59;;;28.58;33.77
7297;BME280;40758;54.038;11.684;2023-06-22T10:44:09;101792.13;;;28.60;33.86
7297;BME280;40758;54.038;11.684;2023-06-22T10:46:35;101790.75;;;28.72;34.25
7297;BME280;40758;54.038;11.684;2023-06-22T10:49:02;101794.97;;;28.92;33.66
7297;BME280;40758;54.038;11.684;2023-06-22T10:51:29;101798.91;;;28.90;32.69
7297;BME280;40758;54.038;11.684;2023-06-22T10:53:57;101797.25;;;29.12;32.96
7297;BME280;40758;54.038;11.684;2023-06-22T10:56:24;101795.59;;;29.11;31.70
7297;BME280;40758;54.038;11.684;2023-06-22T10:58:51;101792.56;;;28.99;31.87
7297;BME280;40758;54.038;11.684;2023-06-22T11:01:17;101790.91;;;28.30;31.18
7297;BME280;40758;54.038;11.684;2023-06-22T11:04:00;101794.03;;;28.15;32.47
7297;BME280;40758;54.038;11.684;2023-06-22T11:06:28;101798.03;;;28.23;33.56
7297;BME280;40758;54.038;11.684;2023-06-22T11:08:54;101786.47;;;28.52;34.36
7297;BME280;40758;54.038;11.684;2023-06-22T11:11:32;101782.97;;;28.46;33.53
7297;BME280;40758;54.038;11.684;2023-06-22T11:13:59;101786.09;;;28.67;33.93
7297;BME280;40758;54.038;11.684;2023-06-22T11:16:26;101786.56;;;28.92;33.74
7297;BME280;40758;54.038;11.684;2023-06-22T11:18:52;101785.19;;;29.03;32.64
7297;BME280;40758;54.038;11.684;2023-06-22T11:21:19;101781.56;;;29.02;32.16
7297;BME280;40758;54.038;11.684;2023-06-22T11:23:46;101775.97;;;29.02;31.84
7297;BME280;40758;54.038;11.684;2023-06-22T11:26:12;101772.72;;;28.86;32.27
7297;BME280;40758;54.038;11.684;2023-06-22T11:28:39;101770.03;;;28.95;32.55
7297;BME280;40758;54.038;11.684;2023-06-22T11:31:06;101772.84;;;29.04;32.59
7297;BME280;40758;54.038;11.684;2023-06-22T11:33:51;101771.19;;;29.03;31.22
7297;BME280;40758;54.038;11.684;2023-06-22T11:36:18;101769.91;;;29.09;31.98
7297;BME280;40758;54.038;11.684;2023-06-22T11:38:45;101769.41;;;29.07;31.72
7297;BME280;40758;54.038;11.684;2023-06-22T11:41:12;101759.84;;;28.99;32.12
7297;BME280;40758;54.038;11.684;2023-06-22T11:43:39;101765.38;;;28.68;32.23
7297;BME280;40758;54.038;11.684;2023-06-22T11:46:06;101758.88;;;28.81;32.55
7297;BME280;40758;54.038;11.684;2023-06-22T11:48:32;101763.47;;;29.00;32.60
7297;BME280;40758;54.038;11.684;2023-06-22T11:50:59;101763.78;;;28.98;32.14
7297;BME280;40758;54.038;11.684;2023-06-22T11:53:27;101760.28;;;29.24;32.07
7297;BME280;40758;54.038;11.684;2023-06-22T11:55:54;101755.94;;;29.09;31.79
7297;BME280;40758;54.038;11.684;2023-06-22T11:58:22;101757.50;;;29.32;32.45
7297;BME280;40758;54.038;11.684;2023-06-22T12:00:49;101751.03;;;29.14;31.53
7297;BME280;40758;54.038;11.684;2023-06-22T12:03:18;101754.00;;;29.18;31.90
7297;BME280;40758;54.038;11.684;2023-06-22T12:05:46;101751.38;;;29.22;32.19
7297;BME280;40758;54.038;11.684;2023-06-22T12:08:13;101747.66;;;29.35;32.58
7297;BME280;40758;54.038;11.684;2023-06-22T12:10:40;101733.53;;;29.40;32.30
7297;BME280;40758;54.038;11.684;2023-06-22T12:13:07;101743.22;;;29.42;31.75
7297;BME280;40758;54.038;11.684;2023-06-22T12:15:33;101743.03;;;29.39;31.96
7297;BME280;40758;54.038;11.684;2023-06-22T12:18:00;101731.56;;;29.49;32.26
7297;BME280;40758;54.038;11.684;2023-06-22T12:20:28;101735.03;;;29.46;31.73
7297;BME280;40758;54.038;11.684;2023-06-22T12:22:55;101736.13;;;29.36;31.38
7297;BME280;40758;54.038;11.684;2023-06-22T12:25:24;101731.03;;;29.38;31.47
7297;BME280;40758;54.038;11.684;2023-06-22T12:27:51;101727.25;;;29.34;32.11
7297;BME280;40758;54.038;11.684;2023-06-22T12:30:18;101731.22;;;29.51;32.11
7297;BME280;40758;54.038;11.684;2023-06-22T12:32:45;101726.66;;;29.55;31.53
7297;BME280;40758;54.038;11.684;2023-06-22T12:35:11;101730.50;;;29.76;31.69
7297;BME280;40758;54.038;11.684;2023-06-22T12:37:41;101727.75;;;29.45;30.88
7297;BME280;40758;54.038;11.684;2023-06-22T12:40:09;101723.63;;;29.42;31.47
7297;BME280;40758;54.038;11.684;2023-06-22T12:42:36;101720.50;;;29.44;31.79
7297;BME280;40758;54.038;11.684;2023-06-22T12:45:04;101723.72;;;29.68;32.26
7297;BME280;40758;54.038;11.684;2023-06-22T12:47:31;101721.09;;;29.72;31.77
7297;BME280;40758;54.038;11.684;2023-06-22T12:49:57;101720.03;;;29.51;31.49
7297;BME280;40758;54.038;11.684;2023-06-22T12:52:24;101719.16;;;29.33;31.43
7297;BME280;40758;54.038;11.684;2023-06-22T12:54:51;101722.16;;;28.97;31.62
7297;BME280;40758;54.038;11.684;2023-06-22T12:57:21;101716.19;;;28.58;31.83
7297;BME280;40758;54.038;11.684;2023-06-22T12:59:48;101717.41;;;28.66;32.68
7297;BME280;40758;54.038;11.684;2023-06-22T13:02:15;101707.88;;;28.98;33.48
7297;BME280;40758;54.038;11.684;2023-06-22T13:04:42;101697.31;;;29.35;32.48